KBAM

Battle Mountain Airport

Battle Mountain, Nevada, USA
METAR KBAM 201235Z AUTO 00000KT 10SM CLR M02/M04 A2998 RMK AO1
Observed Flight Rules
Jan-20 @ 12:35 UTC (30 minutes ago) Visual Flight Rules
Wind Visibility Clouds
Calm 10 miles
  • Clear skies
Temperatures Readings
Current -2°C / 28°F
Dewpoint -4°C / 25°F
Humidity 86%
Altimeter 29.98" Hg
Pressure 1015 hPa
METAR KBAM 201235Z AUTO 00000KT 10SM CLR M02/M04 A2998 RMK AO1
Observed Flight Rules
Jan-20 @ 12:35 UTC
(30 minutes ago)
VFR
Wind Visibility
Calm 10 miles
Clouds
  • Clear skies
Temperature Dewpoint
-2°C / 28°F -4°C / 25°F
Humidity Altimeter Pressure
86% 29.98" Hg 1015 hPa